createdAt,value
2023-05-08T00:02:46.073Z,47
2023-05-08T00:04:49.957Z,42.4
2023-05-08T00:06:53.799Z,43.9
2023-05-08T00:08:57.733Z,39.9
2023-05-08T00:11:01.623Z,40.2
2023-05-08T00:19:20.104Z,40.2
2023-05-08T00:21:24.009Z,40.3
2023-05-08T00:22:27.384Z,40.1
2023-05-08T00:24:31.274Z,33.9
2023-05-08T00:26:35.207Z,39.7
2023-05-08T00:28:39.125Z,39.9
2023-05-08T00:30:45.856Z,43.8
2023-05-08T00:32:49.791Z,36.7
2023-05-08T00:34:53.657Z,43.6
2023-05-08T00:36:57.559Z,40.7
2023-05-08T00:39:01.492Z,32.2
2023-05-08T00:41:05.411Z,31.4
2023-05-08T00:45:16.039Z,43.7
2023-05-08T01:01:50.227Z,33.3
2023-05-08T01:03:54.225Z,39
2023-05-08T01:05:57.964Z,37
2023-05-08T01:08:01.972Z,35.8
2023-05-08T01:10:05.768Z,38.2
2023-05-08T01:12:09.680Z,30.5
2023-05-08T01:16:20.335Z,31.9
2023-05-08T01:20:53.838Z,44.7
2023-05-08T01:25:01.707Z,38.6
2023-05-08T01:27:09.815Z,50.3
2023-05-08T01:29:13.727Z,47.3
2023-05-08T01:31:17.658Z,42.8
2023-05-08T01:33:21.617Z,40.9
2023-05-08T01:35:25.427Z,40.6
2023-05-08T01:37:29.337Z,37.4
2023-05-08T01:39:33.236Z,43.3
2023-05-08T01:41:39.955Z,51.9
2023-05-08T01:45:47.761Z,43.8
2023-05-08T01:54:03.329Z,45.2
2023-05-08T01:56:10.033Z,47.1
2023-05-08T01:58:13.936Z,43.8
2023-05-08T02:06:29.526Z,35.2
2023-05-08T02:08:33.436Z,41
2023-05-08T02:10:40.129Z,54.1
2023-05-08T02:12:44.080Z,43.6
2023-05-08T02:14:47.937Z,46.3
2023-05-08T02:15:51.264Z,51.6
2023-05-08T02:17:55.385Z,53.7
2023-05-08T02:19:59.089Z,47.6
2023-05-08T02:24:09.670Z,57.3
2023-05-08T02:26:13.573Z,57.4
2023-05-08T02:30:21.346Z,55.6
2023-05-08T02:32:25.261Z,46.6
2023-05-08T02:34:29.144Z,56.3
2023-05-08T02:36:33.044Z,61.2
2023-05-08T02:38:39.870Z,49.6
2023-05-08T02:40:43.664Z,43
2023-05-08T02:42:47.549Z,53.5
2023-05-08T02:44:51.444Z,58.1
2023-05-08T02:48:59.211Z,55.5
2023-05-08T02:53:09.863Z,52.7
2023-05-08T02:55:13.724Z,51.7
2023-05-08T03:09:43.823Z,57
2023-05-08T03:12:51.093Z,46.1
2023-05-08T03:14:54.991Z,49.3
2023-05-08T03:16:58.882Z,44
2023-05-08T03:19:02.753Z,46.6
2023-05-08T03:21:09.475Z,43.6
2023-05-08T03:23:13.379Z,41
2023-05-08T03:25:17.292Z,39.3
2023-05-08T03:27:21.182Z,45.7
2023-05-08T03:29:25.064Z,46
2023-05-08T03:31:29.036Z,45.4
2023-05-08T03:33:32.888Z,44.5
2023-05-08T03:37:43.479Z,46.3
2023-05-08T03:39:47.345Z,42.9
2023-05-08T03:41:51.224Z,47.4
2023-05-08T03:43:55.123Z,51.4
2023-05-08T03:45:58.998Z,39.8
2023-05-08T03:48:02.938Z,44.9
2023-05-08T03:52:13.503Z,44.4
2023-05-08T03:54:17.419Z,44
2023-05-08T03:56:21.315Z,45.7
2023-05-08T03:58:25.196Z,45.4
2023-05-08T04:00:29.099Z,39.8
2023-05-08T04:02:33.163Z,45.4
2023-05-08T04:04:39.761Z,49.5
2023-05-08T04:06:49.921Z,48.4
2023-05-08T04:08:47.486Z,43.8
2023-05-08T04:09:50.865Z,46.5
2023-05-08T04:11:54.731Z,43.9
2023-05-08T04:13:58.644Z,47.6
2023-05-08T04:16:02.537Z,46.9
2023-05-08T04:18:09.290Z,46.4
2023-05-08T04:30:32.650Z,43.8
2023-05-08T04:32:40.926Z,60.4
2023-05-08T04:34:43.242Z,54
2023-05-08T04:38:50.985Z,48.5
2023-05-08T04:53:20.912Z,45.1
2023-05-08T04:55:24.797Z,58.9
2023-05-08T04:57:28.689Z,52.9
2023-05-08T04:59:32.585Z,45
2023-05-08T05:01:39.367Z,60.9
2023-05-08T05:03:43.214Z,56.8
2023-05-08T05:05:47.063Z,54.5
2023-05-08T05:08:05.090Z,62.8
2023-05-08T05:10:08.992Z,56.8
2023-05-08T05:14:19.600Z,67.7
2023-05-08T05:16:23.900Z,50.5
2023-05-08T05:18:27.781Z,60.1
2023-05-08T05:20:31.678Z,56.2
2023-05-08T05:22:35.575Z,50.3
2023-05-08T05:24:39.471Z,53.7
2023-05-08T05:35:01.869Z,37.5
2023-05-08T05:39:09.611Z,36.3
2023-05-08T05:41:13.512Z,37.4
2023-05-08T05:45:24.164Z,28.7
2023-05-08T05:47:28.092Z,34.3
2023-05-08T05:49:32.003Z,29.4
2023-05-08T05:51:35.895Z,29.9
2023-05-08T05:53:39.804Z,23
2023-05-08T05:55:43.730Z,31.9
2023-05-08T05:59:55.040Z,34.1
2023-05-08T06:03:01.873Z,28
2023-05-08T06:05:05.605Z,24.5
2023-05-08T06:07:09.514Z,26.7
2023-05-08T06:09:13.427Z,22
2023-05-08T06:13:24.102Z,20
2023-05-08T06:17:31.953Z,22.1
2023-05-08T06:25:50.392Z,23
2023-05-08T06:27:54.291Z,24.9
2023-05-08T06:29:58.210Z,19.1
2023-05-08T06:32:02.099Z,27.6
2023-05-08T06:34:06.016Z,21.7
2023-05-08T06:36:09.905Z,17.5
2023-05-08T06:38:13.818Z,17.1
2023-05-08T06:40:20.573Z,20.8
2023-05-08T06:42:24.466Z,23.8
2023-05-08T06:52:44.041Z,27.1
2023-05-08T06:54:50.781Z,26.3
2023-05-08T06:59:07.638Z,23.4
2023-05-08T07:00:02.007Z,21.2
2023-05-08T07:02:05.962Z,19.3
2023-05-08T07:04:09.837Z,19.1
2023-05-08T07:06:13.678Z,23.3
2023-05-08T07:08:20.419Z,26.3
2023-05-08T07:10:24.323Z,22.2
2023-05-08T07:12:28.220Z,22.1
2023-05-08T07:14:32.090Z,21.9
2023-05-08T07:16:36.018Z,17
2023-05-08T07:18:39.893Z,19.8
2023-05-08T07:20:43.818Z,23.6
2023-05-08T07:22:52.017Z,21.9
2023-05-08T07:24:55.875Z,30
2023-05-08T07:29:03.689Z,21.8
2023-05-08T07:31:07.737Z,22.1
2023-05-08T07:33:11.484Z,20.4
2023-05-08T07:35:15.627Z,24
2023-05-08T07:37:22.093Z,20.5
2023-05-08T07:41:29.980Z,19.4
2023-05-08T07:43:33.806Z,21.5
2023-05-08T07:45:37.726Z,25.7
2023-05-08T07:47:41.699Z,25.8
2023-05-08T07:49:45.494Z,24.8
2023-05-08T07:51:52.246Z,23.2
2023-05-08T07:53:56.124Z,23.3
2023-05-08T07:56:00.034Z,23.3
2023-05-08T07:57:03.386Z,29.4
2023-05-08T07:59:07.280Z,20.6
2023-05-08T08:01:11.177Z,27.4
2023-05-08T08:03:15.139Z,22
2023-05-08T08:09:29.600Z,31.6
2023-05-08T08:11:33.507Z,21.1
2023-05-08T08:13:37.384Z,21.1
2023-05-08T08:15:41.274Z,35.8
2023-05-08T08:17:45.265Z,31.1
2023-05-08T08:19:51.898Z,24.8
2023-05-08T08:21:55.787Z,30.4
2023-05-08T08:23:59.721Z,29.5
2023-05-08T08:26:03.614Z,31
2023-05-08T08:28:07.510Z,25.5
2023-05-08T08:30:17.674Z,35.6
2023-05-08T08:32:15.306Z,23.6
2023-05-08T08:34:22.031Z,29.1
2023-05-08T08:36:25.948Z,28.9
2023-05-08T08:38:29.824Z,31.9
2023-05-08T08:40:33.763Z,25.4
2023-05-08T08:42:37.598Z,25.8
2023-05-08T08:44:41.463Z,23.9
2023-05-08T08:46:45.439Z,27.3
2023-05-08T08:48:52.071Z,22.1
2023-05-08T08:50:55.962Z,24.2
2023-05-08T08:52:59.868Z,26.6
2023-05-08T08:57:27.355Z,27.1
2023-05-08T08:59:31.225Z,30.9
2023-05-08T09:01:37.974Z,26.2
2023-05-08T09:05:45.708Z,24.5
2023-05-08T09:07:49.573Z,28.3
2023-05-08T09:11:57.317Z,28.1
2023-05-08T09:16:07.942Z,33.9
2023-05-08T09:20:15.889Z,32
2023-05-08T09:22:19.510Z,27.5
2023-05-08T09:24:23.401Z,26.4
2023-05-08T09:26:27.271Z,26.5
2023-05-08T09:28:31.134Z,52.6
2023-05-08T09:30:37.868Z,35.5
2023-05-08T09:32:41.777Z,42.3
2023-05-08T09:38:53.303Z,25.3
2023-05-08T09:40:57.174Z,35.2
2023-05-08T09:45:07.708Z,40.2
2023-05-08T09:49:15.407Z,32.9
2023-05-08T09:50:18.751Z,33.1
2023-05-08T09:52:22.617Z,37.7
2023-05-08T09:54:26.460Z,36.7
2023-05-08T09:56:30.276Z,44.5
2023-05-08T09:58:37.005Z,37.8
2023-05-08T10:00:40.819Z,38.5
2023-05-08T10:02:44.686Z,40.3
2023-05-08T10:04:48.543Z,35.1
2023-05-08T10:06:53.625Z,42.5
2023-05-08T10:08:56.235Z,40.3
2023-05-08T10:11:00.064Z,41.6
2023-05-08T10:15:10.615Z,35.7
2023-05-08T10:19:18.276Z,37.9
2023-05-08T10:21:22.123Z,36.6
2023-05-08T10:23:25.957Z,35.7
2023-05-08T10:25:29.820Z,44.8
2023-05-08T10:27:36.524Z,34.3
2023-05-08T10:29:40.331Z,38.9
2023-05-08T10:31:44.377Z,30.1
2023-05-08T10:33:48.016Z,30.7
2023-05-08T10:35:51.851Z,34.5
2023-05-08T10:37:55.688Z,35.1
2023-05-08T10:39:59.532Z,37
2023-05-08T10:44:10.077Z,38.6
2023-05-08T10:46:13.995Z,35.1
2023-05-08T10:49:21.147Z,37.2
2023-05-08T10:51:24.989Z,37.4
2023-05-08T10:53:28.861Z,43.7
2023-05-08T10:57:39.424Z,38.9
2023-05-08T10:59:43.297Z,49.9
2023-05-08T11:01:47.224Z,46.6
2023-05-08T11:07:58.981Z,44.1
2023-05-08T11:12:09.477Z,54.2
2023-05-08T11:14:13.372Z,50.8
2023-05-08T11:22:29.036Z,57.4
2023-05-08T11:24:35.700Z,53.9
2023-05-08T11:26:39.622Z,60
2023-05-08T11:28:43.522Z,61.1
2023-05-08T11:30:47.427Z,53.6
2023-05-08T11:32:51.367Z,57.5
2023-05-08T11:34:55.230Z,66.2
2023-05-08T11:36:59.222Z,65
2023-05-08T11:39:05.869Z,82.4
2023-05-08T11:41:09.783Z,56.5
2023-05-08T11:43:13.679Z,56.9
2023-05-08T11:44:17.054Z,63.2
2023-05-08T11:46:20.975Z,54.9
2023-05-08T11:48:24.879Z,64.7
2023-05-08T11:50:28.783Z,50.6
2023-05-08T11:52:35.520Z,44.9
2023-05-08T11:54:39.456Z,53.6
2023-05-08T11:56:44.241Z,42.5
2023-05-08T11:58:47.285Z,42.3
2023-05-08T12:00:51.240Z,38.5
2023-05-08T12:02:55.247Z,33.5
2023-05-08T12:04:59.094Z,37.7
2023-05-08T12:07:05.744Z,46
2023-05-08T12:09:09.695Z,42.6
2023-05-08T12:11:13.586Z,47.4
2023-05-08T12:13:17.652Z,58.3
2023-05-08T12:15:21.396Z,52.8
2023-05-08T12:17:25.468Z,49.3
2023-05-08T12:19:29.221Z,51.6
2023-05-08T12:21:35.983Z,53.7
2023-05-08T12:23:39.888Z,50.6
2023-05-08T12:25:43.810Z,45.6
2023-05-08T12:27:47.721Z,57.4
2023-05-08T12:29:51.600Z,48.6
2023-05-08T12:31:55.552Z,51
2023-05-08T12:33:59.440Z,40.1
2023-05-08T12:36:06.194Z,45
2023-05-08T12:38:10.101Z,40.2
2023-05-08T12:40:14.156Z,51.8
2023-05-08T12:42:43.587Z,55
2023-05-08T12:44:47.509Z,52.9
2023-05-08T12:46:51.499Z,54.2
2023-05-08T12:48:58.144Z,62.3
2023-05-08T12:53:05.962Z,57
2023-05-08T12:55:09.879Z,49.3
2023-05-08T12:57:13.783Z,56.9
2023-05-08T12:59:17.671Z,55.8
2023-05-08T13:01:21.599Z,51.7
2023-05-08T13:09:40.040Z,50.9
2023-05-08T13:11:43.975Z,51.4
2023-05-08T13:13:47.840Z,52.2
2023-05-08T13:15:51.802Z,49.4
2023-05-08T13:17:58.509Z,51
2023-05-08T13:20:05.286Z,59.2
2023-05-08T13:22:07.744Z,57.2
2023-05-08T13:24:11.646Z,49.8
2023-05-08T13:30:23.353Z,48.1
2023-05-08T13:32:30.113Z,51.3
2023-05-08T13:34:34.845Z,52
2023-05-08T13:36:37.841Z,44
2023-05-08T13:37:41.203Z,49.4
2023-05-08T13:39:45.106Z,59.5
2023-05-08T13:41:49.065Z,49.5
2023-05-08T13:43:53.424Z,43.5
2023-05-08T13:48:04.296Z,46.8
2023-05-08T13:50:08.171Z,45.8
2023-05-08T13:56:19.827Z,43.7
2023-05-08T13:58:23.724Z,49.7
2023-05-08T14:00:30.455Z,50.2
2023-05-08T14:02:34.483Z,50.2
2023-05-08T14:04:38.228Z,39.4
2023-05-08T14:06:42.098Z,53.6
2023-05-08T14:08:47.989Z,40.5
2023-05-08T14:10:49.877Z,47.9
2023-05-08T14:12:53.774Z,50.2
2023-05-08T14:15:00.467Z,51.7
2023-05-08T14:23:15.987Z,48.1
2023-05-08T14:25:19.881Z,40.1
2023-05-08T14:27:23.758Z,44
2023-05-08T14:29:30.493Z,43.2
2023-05-08T14:31:34.531Z,40
2023-05-08T14:34:41.584Z,38.4
2023-05-08T14:36:45.485Z,39
2023-05-08T14:40:53.239Z,43.1
2023-05-08T14:42:59.952Z,35.3
2023-05-08T14:45:03.913Z,37.1
2023-05-08T14:47:07.702Z,46.6
2023-05-08T14:49:12.430Z,37.8
2023-05-08T14:51:15.444Z,38.4
2023-05-08T14:53:19.440Z,48.3
2023-05-08T14:55:23.351Z,36.8
2023-05-08T14:57:29.917Z,46
2023-05-08T14:59:33.816Z,44.1
2023-05-08T15:01:38.515Z,41
2023-05-08T15:03:42.521Z,39.3
2023-05-08T15:07:50.149Z,42.3
2023-05-08T15:09:54.001Z,38.4
2023-05-08T15:12:00.702Z,41.7
2023-05-08T15:14:04.596Z,38.4
2023-05-08T15:16:08.501Z,50.3
2023-05-08T15:18:12.344Z,42.3
2023-05-08T15:20:16.215Z,48.5
2023-05-08T15:22:20.094Z,51.8
2023-05-08T15:24:23.975Z,41.1
2023-05-08T15:31:41.921Z,53.2
2023-05-08T15:33:45.769Z,50.9
2023-05-08T15:37:53.578Z,57.4
2023-05-08T15:40:00.315Z,62.1
2023-05-08T15:42:04.221Z,58.7
2023-05-08T15:44:08.132Z,66.5
2023-05-08T15:48:15.938Z,73.6
2023-05-08T15:50:19.828Z,59.1
2023-05-08T15:52:23.759Z,61.1
2023-05-08T15:54:30.519Z,62.3
2023-05-08T15:56:34.410Z,71.5
2023-05-08T16:00:45.346Z,63.3
2023-05-08T16:04:50.075Z,65.9
2023-05-08T16:19:20.227Z,66.5
2023-05-08T16:21:24.147Z,67.1
2023-05-08T16:23:30.898Z,77
2023-05-08T16:25:34.818Z,63.2
2023-05-08T16:27:38.729Z,62.1
2023-05-08T16:30:08.299Z,67.8
2023-05-08T16:32:12.228Z,69.3
2023-05-08T16:34:16.157Z,59.4
2023-05-08T16:36:22.865Z,63.1
2023-05-08T16:40:30.688Z,58.8
2023-05-08T16:44:38.504Z,61.9
2023-05-08T16:48:46.329Z,61.2
2023-05-08T16:57:04.796Z,62.9
2023-05-08T16:59:08.720Z,66.8
2023-05-08T17:01:12.650Z,66.3
2023-05-08T17:03:16.693Z,61.7
2023-05-08T17:05:23.248Z,62
2023-05-08T17:07:27.187Z,58.4
2023-05-08T17:09:31.342Z,59
2023-05-08T17:11:35.001Z,62.1
2023-05-08T17:13:38.914Z,66.4
2023-05-08T17:15:42.801Z,73.6
2023-05-08T17:17:46.789Z,68
2023-05-08T17:19:53.469Z,64.9
2023-05-08T17:25:04.696Z,68.1
2023-05-08T17:27:08.576Z,66.8
2023-05-08T17:29:12.507Z,63.6
2023-05-08T17:31:16.430Z,60.9
2023-05-08T17:33:23.153Z,75.7
2023-05-08T17:35:27.059Z,61.8
2023-05-08T17:37:30.972Z,67.4
2023-05-08T17:39:34.859Z,60.4
2023-05-08T17:41:38.771Z,56.5
2023-05-08T17:43:42.663Z,46.8
2023-05-08T17:45:46.613Z,56.3
2023-05-08T17:47:53.366Z,54.2
2023-05-08T17:49:57.279Z,57
2023-05-08T17:52:01.164Z,52.1
2023-05-08T17:54:05.063Z,55.2
2023-05-08T18:00:16.796Z,54
2023-05-08T18:06:31.384Z,57.5
2023-05-08T18:08:35.295Z,68.7
2023-05-08T18:12:43.161Z,72.1
2023-05-08T18:14:47.030Z,64.2
2023-05-08T18:18:57.705Z,66.1
2023-05-08T18:21:01.617Z,58.9
2023-05-08T18:22:05.012Z,62.5
2023-05-08T18:24:08.918Z,57
2023-05-08T18:26:12.833Z,58.7
2023-05-08T18:34:31.297Z,59.2
2023-05-08T18:38:39.121Z,51.4
2023-05-08T18:44:53.671Z,41
2023-05-08T18:46:57.596Z,41
2023-05-08T18:53:09.327Z,25
2023-05-08T18:55:13.249Z,23.9
2023-05-08T19:01:27.852Z,27
2023-05-08T19:19:06.845Z,77.7
2023-05-08T19:21:10.754Z,76.7
2023-05-08T19:23:14.672Z,99
2023-05-08T19:25:18.628Z,87.6
2023-05-08T19:33:37.104Z,80
2023-05-08T19:35:41.025Z,86
2023-05-08T19:37:44.937Z,80
2023-05-08T19:39:48.872Z,96.7
2023-05-08T19:41:55.908Z,83.8
2023-05-08T19:43:59.801Z,85.1
2023-05-08T19:46:03.784Z,88.5
2023-05-08T19:48:13.160Z,90.3
2023-05-08T19:50:11.704Z,79.9
2023-05-08T19:52:15.485Z,85.8
2023-05-08T19:54:19.410Z,89.1
2023-05-08T19:56:26.122Z,94.1
2023-05-08T19:58:30.088Z,84.1
2023-05-08T20:00:33.965Z,92.4
2023-05-08T20:06:45.723Z,78
2023-05-08T20:08:49.639Z,103.8
2023-05-08T20:10:56.372Z,98.5
2023-05-08T20:13:00.334Z,96.3
2023-05-08T20:17:33.899Z,109.7
2023-05-08T20:19:37.786Z,100.4
2023-05-08T20:21:41.661Z,113.3
2023-05-08T20:23:48.418Z,96.7
2023-05-08T20:25:52.332Z,113.1
2023-05-08T20:27:56.263Z,114.9
2023-05-08T20:30:00.208Z,97.2
2023-05-08T20:32:04.137Z,97.6
2023-05-08T20:34:08.010Z,116.6
2023-05-08T20:36:11.930Z,104.2
2023-05-08T20:40:22.563Z,109.6
2023-05-08T20:42:26.476Z,129.2
2023-05-08T20:44:30.412Z,115.2
2023-05-08T20:46:34.310Z,130.7
2023-05-08T20:48:38.226Z,119.4
2023-05-08T20:52:48.902Z,124.2
2023-05-08T20:54:52.815Z,98.1
2023-05-08T20:56:56.738Z,115.9
2023-05-08T20:59:00.650Z,104.5
2023-05-08T21:07:19.136Z,120.6
2023-05-08T21:09:23.048Z,130.7
2023-05-08T21:11:26.970Z,108.3
2023-05-08T21:12:30.352Z,110.8
2023-05-08T21:16:38.244Z,120.8
2023-05-08T21:18:42.127Z,112.8
2023-05-08T21:20:48.807Z,126
2023-05-08T21:22:52.740Z,120
2023-05-08T21:24:56.664Z,129
2023-05-08T21:27:00.561Z,136.4
2023-05-08T21:29:04.487Z,117.5
2023-05-08T21:31:08.419Z,114.2
2023-05-08T21:33:12.311Z,131.2
2023-05-08T21:37:22.962Z,135.8
2023-05-08T21:39:26.916Z,155.2
2023-05-08T21:41:30.807Z,133.8
2023-05-08T21:43:34.721Z,119.1
2023-05-08T21:47:42.630Z,138.5
2023-05-08T21:49:49.283Z,143.3
2023-05-08T21:51:53.238Z,137.9
2023-05-08T21:53:57.132Z,127.5
2023-05-08T21:56:01.064Z,157.8
2023-05-08T21:58:04.966Z,127.5
2023-05-08T22:00:08.977Z,111.8
2023-05-08T22:02:12.855Z,155.8
2023-05-08T22:04:19.520Z,137.2
2023-05-08T22:09:30.720Z,122.6
2023-05-08T22:11:34.688Z,128.1
2023-05-08T22:17:49.271Z,131.4
2023-05-08T22:30:12.702Z,141.1
2023-05-08T22:32:19.431Z,161.2
2023-05-08T22:34:23.337Z,151.7
2023-05-08T22:36:27.249Z,133.6
2023-05-08T22:40:35.076Z,167.4
2023-05-08T22:44:42.882Z,133.4
2023-05-08T22:55:05.277Z,170.4
2023-05-08T22:57:09.167Z,164
2023-05-08T22:59:13.072Z,154.6
2023-05-08T23:01:19.861Z,177.1
2023-05-08T23:05:27.627Z,166.6
2023-05-08T23:06:31.004Z,185.5
2023-05-08T23:08:34.937Z,158.7
2023-05-08T23:12:42.766Z,158.1
2023-05-08T23:16:53.419Z,154.8
2023-05-08T23:18:57.290Z,155
2023-05-08T23:23:05.119Z,169.5
2023-05-08T23:25:09.078Z,146.3
2023-05-08T23:27:12.981Z,153.4
2023-05-08T23:29:19.718Z,145.6
2023-05-08T23:31:23.644Z,155.1
2023-05-08T23:37:35.370Z,146.6
2023-05-08T23:41:43.188Z,149.3
2023-05-08T23:43:49.940Z,177.2
2023-05-08T23:50:01.697Z,151
2023-05-08T23:56:13.394Z,158
